トビリシ の空港の天気 - METARとTAF

トビリシ国際空港 ( UGTB / TBS ) - グルジア トビリシ
飛行場実況気象(Metar)
観測時間07/28 16:00 GET (07/28 12:00 UTC)
風向・風速南 4m/s
視程10km以上
天気現象
なし
気温36℃
湿度33%
気圧1010hPa
METARUGTB 281200Z 18007KT 140V220 CAVOK 36/17 Q1010 R13R/CLRD70 NOSIG
過去の天気等 Google飛行場航空写真 Wunderground天気予報

過去48時間のMETAR

飛行場予報(TAF)
発表時間: 7/28 15:00 GET (7/28 11:00 UTC)
予報対象時間: 28日16時 GET ~ 29日16時 GET
風向・風速不定 1m/s
視程10km以上
なし
28日16時 GET ~ 28日22時 GET に一時的に
風向・風速南南東 5m/s
29日7時 GET ~ 29日10時 GET に徐々に
風向・風速北西 8m/s
TAF UGTB 281100Z 2812/2912 VRB02KT CAVOK TX37/2911Z TX23/2901Z
TEMPO 2812/2818 15010KT
BECMG 2903/2906 32016KT